Impacts TAF Board
For situational awareness. Not to be used for flight planning purposes.
IDs:

KBCE - Bryce Canyon Arpt, UT, US

Issued at 1120 UTC 30 Oct 2020
Updated at 1652 UTC 30 Oct 2020
Potential Impact None Slight Moderate High
Time1553Z 30/17Z 30/18Z 30/19Z 30/20Z 30/21Z 30/22Z 30/23Z 31/00Z 31/01Z 31/02Z 31/03Z 31/04Z 31/05Z>>
Type OBS PRVL PRVL PRVL PRVL PRVL PRVL PRVL PRVL PRVL PRVL PRVL PRVL PRVL
VIS 10 >6 >6 >6 >6 >6 >6 >6 >6 >6 >6 >6 >6 >6
CIG -- -- -- -- -- -- -- -- -- -- -- -- -- --
Cover CLR SKC SKC SKC SKC SKC SKC SKC SKC SKC SKC SKC SKC SKC
FltCat VFR VFR VFR VFR VFR VFR VFR VFR VFR VFR VFR VFR VFR VFR
WX -- -- -- -- -- -- -- -- -- -- -- -- -- --
WDir 260 130 130 130 130 130 130 130 270 270 270 270 270 270
WSpd 3 6 6 6 6 6 6 6 6 6 6 6 6 6
WGst -- -- -- -- -- -- -- -- -- -- -- -- -- --
Raw TAF
KBCE 301120Z 3012/3112 26007KT P6SM SKC
  FM301600 13006KT P6SM SKC
  FM310000 27006KT P6SM SKC


Raw METAR
KBCE 301553Z AUTO 26003KT 10SM CLR 04/M08 A3035 RMK AO2 SLP244 T00441078
KBCE 301453Z AUTO 27004KT 10SM CLR M03/M09 A3034 RMK AO2 SLP257 T10281094 51002
KBCE 301353Z AUTO 27004KT 10SM CLR M07/M11 A3034 RMK AO2 SLP264 T10671111

METAR Board
Radar Display
Forecast Discussion
For situational awareness. Not to be used for flight planning purposes.